Time;durP1;ratioP1;P1;durP2;ratioP2;P2;SDS_P1;SDS_P2;PMS_P1;PMS_P2;Temp;Humidity;BMP_temperature;BMP_pressure;BME280_temperature;BME280_humidity;BME280_pressure;Samples;Min_cycle;Max_cycle;Signal;HPM_P1;HPM_P2
2021/01/06 00:00:41;;;;;;;1.80;1.25;;;3.70;99.90;;;;;;4986046;28;20053;-79
2021/01/06 00:03:08;;;;;;;2.80;1.23;;;3.70;99.90;;;;;;4986360;28;20082;-77
2021/01/06 00:05:34;;;;;;;2.00;1.35;;;3.70;99.90;;;;;;4986443;28;20487;-79
2021/01/06 00:07:59;;;;;;;2.85;1.67;;;3.70;99.90;;;;;;4986478;28;20030;-78
2021/01/06 00:10:28;;;;;;;1.98;1.40;;;3.60;99.90;;;;;;4968966;28;20106;-79
2021/01/06 00:12:54;;;;;;;3.55;1.58;;;3.60;99.90;;;;;;4969464;28;20027;-79
2021/01/06 00:15:26;;;;;;;6.53;1.70;;;3.60;99.90;;;;;;4986616;28;20078;-78
2021/01/06 00:17:52;;;;;;;2.08;1.17;;;3.60;99.90;;;;;;4969053;28;20027;-80
2021/01/06 00:20:19;;;;;;;3.53;1.40;;;3.60;99.90;;;;;;4986532;28;20050;-77
2021/01/06 00:22:45;;;;;;;2.95;1.27;;;3.60;99.90;;;;;;4969063;28;20019;-78
2021/01/06 00:25:23;;;;;;;2.22;1.23;;;3.60;99.90;;;;;;4968852;28;20137;-80
2021/01/06 00:27:48;;;;;;;3.58;1.52;;;3.70;99.90;;;;;;4969245;28;20031;-79
2021/01/06 00:30:28;;;;;;;1.10;0.75;;;3.60;99.90;;;;;;4986349;28;20035;-81
2021/01/06 00:32:54;;;;;;;2.58;1.17;;;3.60;99.90;;;;;;4986130;28;20057;-78
2021/01/06 00:35:21;;;;;;;3.25;1.42;;;3.60;99.90;;;;;;4968523;28;20023;-77
2021/01/06 00:37:47;;;;;;;2.03;0.95;;;3.70;99.90;;;;;;4968808;28;20026;-79
2021/01/06 00:40:14;;;;;;;3.45;1.52;;;3.60;99.90;;;;;;4971712;28;20050;-78
2021/01/06 00:42:40;;;;;;;3.28;1.60;;;3.50;99.90;;;;;;4989198;28;20023;-78
2021/01/06 00:45:08;;;;;;;2.60;1.48;;;3.50;99.90;;;;;;4985843;28;20098;-79
2021/01/06 00:47:34;;;;;;;3.67;1.35;;;3.50;99.90;;;;;;4986355;28;20138;-79
2021/01/06 00:50:00;;;;;;;1.65;1.10;;;3.50;99.90;;;;;;4986261;28;20145;-78
2021/01/06 00:52:26;;;;;;;2.30;1.27;;;3.50;99.90;;;;;;4968825;28;20055;-79
2021/01/06 00:54:51;;;;;;;3.75;1.45;;;3.50;99.90;;;;;;4968943;28;20031;-79
2021/01/06 00:57:17;;;;;;;2.13;0.98;;;3.50;99.90;;;;;;4986159;28;20091;-78
2021/01/06 00:59:44;;;;;;;3.72;1.55;;;3.50;99.90;;;;;;4968435;28;20035;-78
2021/01/06 01:02:09;;;;;;;2.55;1.25;;;3.60;99.90;;;;;;4986073;28;20030;-80
2021/01/06 01:04:35;;;;;;;4.05;1.17;;;3.60;99.90;;;;;;4967930;28;20055;-78
2021/01/06 01:07:01;;;;;;;2.63;1.52;;;3.60;99.90;;;;;;4968466;28;20022;-79
2021/01/06 01:09:27;;;;;;;2.78;1.45;;;3.50;99.90;;;;;;4968306;28;20117;-79
2021/01/06 01:11:52;;;;;;;8.60;1.45;;;3.50;99.90;;;;;;4986608;28;20359;-78
2021/01/06 01:14:18;;;;;;;2.20;1.67;;;3.50;99.90;;;;;;4989442;28;20054;-78
2021/01/06 01:16:44;;;;;;;3.60;1.10;;;3.50;99.90;;;;;;4989819;28;20030;-79
2021/01/06 01:19:10;;;;;;;3.45;1.50;;;3.50;99.90;;;;;;4971883;28;20089;-78
2021/01/06 01:21:36;;;;;;;3.30;1.30;;;3.50;99.90;;;;;;4989294;28;20114;-78
2021/01/06 01:24:04;;;;;;;2.53;1.55;;;3.50;99.90;;;;;;4972225;28;20034;-79
2021/01/06 01:26:29;;;;;;;3.22;1.40;;;3.50;99.90;;;;;;4989583;28;20027;-79
2021/01/06 01:28:55;;;;;;;2.72;1.52;;;3.40;99.90;;;;;;4971831;28;20563;-78
2021/01/06 01:31:20;;;;;;;1.70;0.77;;;3.40;99.90;;;;;;4972238;28;20031;-78
2021/01/06 01:33:46;;;;;;;2.60;1.30;;;3.30;99.90;;;;;;4989029;28;20023;-79
2021/01/06 01:36:12;;;;;;;4.22;2.10;;;3.40;99.90;;;;;;4971555;28;20037;-78
2021/01/06 01:38:37;;;;;;;4.05;1.98;;;3.40;99.90;;;;;;4989378;28;20035;-79
2021/01/06 01:41:14;;;;;;;1.65;1.27;;;3.40;99.90;;;;;;4988957;28;20030;-79
2021/01/06 01:43:40;;;;;;;2.03;1.30;;;3.40;99.90;;;;;;4989256;28;20019;-78
2021/01/06 01:46:07;;;;;;;2.70;1.75;;;3.40;99.90;;;;;;4971764;28;20047;-78
2021/01/06 01:48:40;;;;;;;2.17;1.30;;;3.30;99.90;;;;;;4971321;28;20098;-78
2021/01/06 01:51:36;;;;;;;2.63;1.58;;;3.30;99.90;;;;;;4971530;28;20039;-79
2021/01/06 01:54:07;;;;;;;1.73;1.13;;;3.30;99.90;;;;;;4985815;28;20045;-78
2021/01/06 01:56:41;;;;;;;2.88;1.77;;;3.30;99.90;;;;;;4971264;28;20026;-77
2021/01/06 01:59:13;;;;;;;1.30;0.82;;;3.30;99.90;;;;;;4971814;28;20520;-79
2021/01/06 02:01:38;;;;;;;1.80;0.93;;;3.30;99.90;;;;;;4988791;28;20043;-78
2021/01/06 02:04:12;;;;;;;3.65;1.80;;;3.30;99.90;;;;;;4971054;28;20051;-79
2021/01/06 02:06:49;;;;;;;2.95;1.40;;;3.40;99.90;;;;;;4989134;28;20051;-78
2021/01/06 02:09:32;;;;;;;1.42;1.00;;;3.30;99.90;;;;;;4970749;28;20035;-79
2021/01/06 02:12:12;;;;;;;2.45;1.45;;;3.30;99.90;;;;;;4988773;28;20031;-80
2021/01/06 02:14:48;;;;;;;3.25;1.70;;;3.30;99.90;;;;;;4970838;28;20034;-79
2021/01/06 02:17:14;;;;;;;3.25;1.83;;;3.40;99.90;;;;;;4971084;28;20054;-78
2021/01/06 02:19:43;;;;;;;1.60;1.00;;;3.30;99.90;;;;;;4970468;28;20053;-77
2021/01/06 02:22:13;;;;;;;2.88;1.33;;;3.40;99.90;;;;;;4988542;28;20027;-78
2021/01/06 02:24:39;;;;;;;5.80;2.00;;;3.40;99.90;;;;;;4970395;28;20031;-78
2021/01/06 02:27:06;;;;;;;1.77;1.02;;;3.40;99.90;;;;;;4971132;28;20027;-78
2021/01/06 02:29:33;;;;;;;5.05;1.55;;;3.40;99.90;;;;;;4970979;28;20054;-79
2021/01/06 02:31:59;;;;;;;2.20;0.77;;;3.40;99.90;;;;;;4970707;28;20023;-79
2021/01/06 02:34:25;;;;;;;1.75;1.40;;;3.40;99.90;;;;;;4988390;28;20118;-78
2021/01/06 02:36:51;;;;;;;2.10;1.27;;;3.30;99.90;;;;;;4970940;28;20034;-78
2021/01/06 02:39:17;;;;;;;2.67;1.55;;;3.40;99.90;;;;;;4988054;28;20049;-78
2021/01/06 02:41:46;;;;;;;2.83;1.23;;;3.40;99.90;;;;;;4970863;28;20034;-78
2021/01/06 02:44:12;;;;;;;2.67;1.45;;;3.40;99.90;;;;;;4970437;28;20030;-77
2021/01/06 02:46:38;;;;;;;2.17;0.93;;;3.40;99.90;;;;;;4987896;28;20042;-79
2021/01/06 02:49:05;;;;;;;7.65;1.17;;;3.30;99.90;;;;;;4988088;28;20054;-79
2021/01/06 02:51:47;;;;;;;2.80;1.70;;;3.30;99.90;;;;;;4970393;28;20031;-79
2021/01/06 02:54:18;;;;;;;5.15;1.77;;;3.30;99.90;;;;;;4987443;28;20023;-78
2021/01/06 02:56:46;;;;;;;5.85;1.88;;;3.30;99.90;;;;;;4988081;28;20583;-79
2021/01/06 02:59:14;;;;;;;6.35;1.67;;;3.30;99.90;;;;;;4987534;28;20043;-78
2021/01/06 03:01:41;;;;;;;2.80;1.40;;;3.30;99.90;;;;;;4987886;28;20070;-79
2021/01/06 03:04:11;;;;;;;3.10;1.63;;;3.30;99.90;;;;;;4969798;28;20144;-78
2021/01/06 03:06:48;;;;;;;5.72;2.30;;;3.30;99.90;;;;;;4987620;28;20022;-78
2021/01/06 03:09:25;;;;;;;4.43;2.03;;;3.30;99.90;;;;;;4970499;28;20027;-79
2021/01/06 03:11:51;;;;;;;2.45;0.88;;;3.20;99.90;;;;;;4987984;28;20041;-78
2021/01/06 03:14:17;;;;;;;2.05;1.40;;;3.20;99.90;;;;;;4987262;28;20030;-77
2021/01/06 03:16:43;;;;;;;2.70;1.42;;;3.20;99.90;;;;;;4987431;28;20058;-78
2021/01/06 03:19:10;;;;;;;2.88;2.10;;;3.20;99.90;;;;;;4987227;28;20047;-78
2021/01/06 03:21:39;;;;;;;3.60;1.80;;;3.20;99.90;;;;;;4987158;28;20082;-78
2021/01/06 03:24:07;;;;;;;3.35;1.85;;;3.20;99.90;;;;;;4970054;28;20030;-78
2021/01/06 03:26:34;;;;;;;3.97;2.00;;;3.20;99.90;;;;;;4969832;28;20030;-77
2021/01/06 03:29:00;;;;;;;3.13;1.73;;;3.20;99.90;;;;;;4987417;28;20034;-78
2021/01/06 03:31:43;;;;;;;7.93;1.73;;;3.20;99.90;;;;;;4970061;28;20062;-76
2021/01/06 03:34:23;;;;;;;3.65;1.65;;;3.20;99.90;;;;;;4986689;28;20026;-80
2021/01/06 03:36:59;;;;;;;3.67;1.45;;;3.20;99.90;;;;;;4969669;28;20479;-78
2021/01/06 03:39:32;;;;;;;2.38;1.40;;;3.20;99.90;;;;;;4987137;28;20077;-80
2021/01/06 03:42:00;;;;;;;4.95;2.00;;;3.10;99.90;;;;;;4969764;28;20085;-79
2021/01/06 03:44:26;;;;;;;5.20;1.45;;;3.20;99.90;;;;;;4969841;28;20035;-79
2021/01/06 03:47:31;;;;;;;4.65;1.77;;;3.20;99.90;;;;;;4987160;28;20027;-79
2021/01/06 03:50:34;;;;;;;2.75;1.48;;;3.10;99.90;;;;;;4985156;28;20058;-79
2021/01/06 03:53:25;;;;;;;3.35;1.67;;;3.10;99.90;;;;;;4987027;28;20086;-80
2021/01/06 03:55:58;;;;;;;2.47;1.13;;;3.10;99.90;;;;;;4969288;28;20030;-78
2021/01/06 03:59:03;;;;;;;2.47;1.42;;;3.10;99.90;;;;;;4986957;28;20030;-79
2021/01/06 04:02:09;;;;;;;3.47;1.65;;;3.10;99.90;;;;;;4969556;28;20030;-79
2021/01/06 04:04:44;;;;;;;2.55;1.30;;;3.10;99.90;;;;;;4964218;29;20118;-77
2021/01/06 04:07:23;;;;;;;2.67;1.65;;;3.10;99.90;;;;;;4967202;28;20051;-79
2021/01/06 04:10:14;;;;;;;3.58;1.58;;;3.00;99.90;;;;;;4969221;28;20031;-78
2021/01/06 04:12:40;;;;;;;3.10;1.38;;;3.00;99.90;;;;;;4969018;28;20106;-78
2021/01/06 04:15:08;;;;;;;2.05;1.15;;;3.10;99.90;;;;;;4969275;28;20023;-78
2021/01/06 04:17:39;;;;;;;1.67;1.02;;;3.10;99.90;;;;;;4968823;28;20027;-78
2021/01/06 04:20:36;;;;;;;2.55;1.50;;;3.10;99.90;;;;;;4969080;28;20035;-80
2021/01/06 04:23:07;;;;;;;1.70;1.13;;;3.10;99.90;;;;;;4986406;28;20031;-80
2021/01/06 04:25:34;;;;;;;3.28;1.42;;;3.10;99.90;;;;;;4986564;28;20387;-79
2021/01/06 04:28:04;;;;;;;1.95;0.95;;;3.10;99.90;;;;;;4986531;28;20046;-78
2021/01/06 04:30:40;;;;;;;2.38;1.13;;;3.10;99.90;;;;;;4986216;28;20031;-80
2021/01/06 04:33:23;;;;;;;3.85;1.13;;;3.10;99.90;;;;;;4969031;28;20042;-78
2021/01/06 04:35:49;;;;;;;3.30;1.63;;;3.10;99.90;;;;;;4986566;28;20058;-77
2021/01/06 04:38:21;;;;;;;8.25;1.45;;;3.10;99.90;;;;;;4968723;28;20066;-78
2021/01/06 04:40:49;;;;;;;2.90;0.65;;;3.10;99.90;;;;;;4986752;28;20034;-79
2021/01/06 04:43:35;;;;;;;1.77;0.90;;;3.10;99.90;;;;;;4986345;28;20384;-77
2021/01/06 04:46:06;;;;;;;4.43;1.27;;;3.10;99.90;;;;;;4969411;28;20069;-78
2021/01/06 04:48:41;;;;;;;2.28;0.90;;;3.10;99.90;;;;;;4972815;28;20074;-79
2021/01/06 04:51:21;;;;;;;;;;;3.10;99.90;;;;;;4973116;28;20037;-78
2021/01/06 04:54:21;;;;;;;3.67;1.25;;;3.00;99.90;;;;;;4990215;28;19930;-80
2021/01/06 04:57:08;;;;;;;2.00;0.80;;;3.00;99.90;;;;;;4972554;28;20041;-78
2021/01/06 04:59:57;;;;;;;2.85;1.23;;;3.00;99.90;;;;;;4989813;28;20062;-77
2021/01/06 05:02:54;;;;;;;2.45;0.90;;;3.00;99.90;;;;;;4972652;28;20037;-79
2021/01/06 05:05:50;;;;;;;6.22;1.65;;;3.00;99.90;;;;;;4989567;28;20066;-79
2021/01/06 05:08:32;;;;;;;2.58;1.10;;;3.00;99.90;;;;;;4972636;28;20106;-78
2021/01/06 05:11:06;;;;;;;3.67;1.25;;;3.00;99.90;;;;;;4972900;28;20031;-79
2021/01/06 05:13:55;;;;;;;2.13;1.20;;;3.00;99.90;;;;;;4989497;28;20034;-78
2021/01/06 05:16:50;;;;;;;2.35;0.95;;;2.90;99.90;;;;;;4968718;28;20046;-77
2021/01/06 05:19:21;;;;;;;2.83;1.58;;;2.90;99.90;;;;;;4989188;28;20090;-79
2021/01/06 05:21:47;;;;;;;1.60;0.80;;;2.90;99.90;;;;;;4989909;28;20073;-79
2021/01/06 05:24:22;;;;;;;1.85;1.02;;;2.90;99.90;;;;;;4972243;28;20030;-79
2021/01/06 05:27:01;;;;;;;2.22;1.08;;;3.00;99.90;;;;;;4972049;28;20027;-78
2021/01/06 05:29:29;;;;;;;1.15;0.80;;;2.90;99.90;;;;;;4972372;28;20114;-78
2021/01/06 05:31:54;;;;;;;2.67;0.88;;;3.00;99.90;;;;;;4972154;28;20035;-78
2021/01/06 05:34:22;;;;;;;4.05;1.52;;;2.90;99.90;;;;;;4971215;28;20038;-78
2021/01/06 05:36:48;;;;;;;2.33;1.13;;;2.90;99.90;;;;;;4989685;28;20035;-79
2021/01/06 05:39:28;;;;;;;2.83;1.38;;;2.90;99.90;;;;;;4971564;28;20035;-80
2021/01/06 05:42:15;;;;;;;1.90;0.80;;;2.90;99.90;;;;;;4989389;28;20038;-80
2021/01/06 05:44:41;;;;;;;2.78;1.30;;;2.90;99.90;;;;;;4989503;28;20037;-79
2021/01/06 05:47:17;;;;;;;2.80;0.95;;;3.00;99.90;;;;;;4988903;28;20054;-78
2021/01/06 05:49:44;;;;;;;1.38;0.68;;;2.80;99.90;;;;;;4971616;28;20050;-78
2021/01/06 05:52:14;;;;;;;2.65;1.50;;;2.80;99.90;;;;;;4989264;28;20026;-78
2021/01/06 05:54:52;;;;;;;1.15;0.73;;;2.80;99.90;;;;;;4988615;28;20400;-77
2021/01/06 05:57:33;;;;;;;2.00;0.70;;;2.80;99.90;;;;;;4989018;28;20033;-79
2021/01/06 06:00:19;;;;;;;4.97;1.42;;;2.80;99.90;;;;;;4988837;28;20039;-79
2021/01/06 06:03:02;;;;;;;1.02;0.57;;;2.80;99.90;;;;;;4971494;28;20554;-79
2021/01/06 06:05:41;;;;;;;2.58;1.38;;;2.80;99.90;;;;;;4988673;28;20058;-79
2021/01/06 06:08:40;;;;;;;2.08;0.85;;;2.80;99.90;;;;;;4988542;28;20091;-79
2021/01/06 06:11:36;;;;;;;2.30;1.33;;;2.80;99.90;;;;;;4988803;28;20026;-79
2021/01/06 06:14:31;;;;;;;3.20;1.25;;;2.80;99.90;;;;;;4971281;28;20027;-79
2021/01/06 06:17:03;;;;;;;;;;;2.80;99.90;;;;;;4989152;28;20030;-79
2021/01/06 06:19:40;;;;;;;0.95;0.70;;;2.80;99.90;;;;;;4971106;28;19918;-79
2021/01/06 06:22:16;;;;;;;1.08;0.68;;;2.90;99.90;;;;;;4988457;28;20031;-78
2021/01/06 06:24:55;;;;;;;1.85;1.02;;;2.90;99.90;;;;;;4988591;28;20062;-79
2021/01/06 06:27:58;;;;;;;1.00;0.80;;;2.80;99.90;;;;;;4988649;28;20053;-78
2021/01/06 06:30:32;;;;;;;9.23;1.17;;;2.80;99.90;;;;;;4970852;28;20121;-78
2021/01/06 06:32:59;;;;;;;1.40;0.90;;;2.80;99.90;;;;;;4988443;28;20058;-78
2021/01/06 06:35:36;;;;;;;2.58;1.13;;;2.80;99.90;;;;;;4970706;28;20035;-79
2021/01/06 06:38:05;;;;;;;3.78;1.23;;;2.80;99.90;;;;;;4970912;28;20042;-77
2021/01/06 06:40:50;;;;;;;2.00;1.02;;;2.80;99.90;;;;;;4988362;28;20098;-78
2021/01/06 06:43:33;;;;;;;5.28;1.63;;;2.80;99.90;;;;;;4988136;28;20027;-77
2021/01/06 06:46:34;;;;;;;9.15;1.85;;;2.80;99.90;;;;;;4987793;28;20042;-78
2021/01/06 06:49:17;;;;;;;3.50;2.13;;;2.80;99.90;;;;;;4970588;28;20046;-79
2021/01/06 06:51:53;;;;;;;4.35;1.10;;;2.80;99.90;;;;;;4970239;28;20389;-79
2021/01/06 06:54:39;;;;;;;2.65;1.25;;;2.80;99.90;;;;;;4970927;28;20119;-77
2021/01/06 06:57:22;;;;;;;2.10;0.95;;;2.70;99.90;;;;;;4969674;28;20551;-76
2021/01/06 07:00:02;;;;;;;7.65;1.63;;;2.80;99.90;;;;;;4987000;28;20518;-77
2021/01/06 07:02:28;;;;;;;3.40;1.98;;;2.80;99.90;;;;;;4987600;28;20034;-76
2021/01/06 07:05:04;;;;;;;4.28;2.03;;;2.80;99.90;;;;;;4969542;28;20047;-75
2021/01/06 07:07:45;;;;;;;6.20;2.22;;;2.80;99.90;;;;;;4987545;28;20027;-77
2021/01/06 07:10:20;;;;;;;7.05;1.95;;;2.80;99.90;;;;;;4986565;28;20046;-76
2021/01/06 07:12:48;;;;;;;3.05;1.67;;;2.70;99.90;;;;;;4969725;28;20054;-76
2021/01/06 07:15:32;;;;;;;2.80;1.50;;;2.70;99.90;;;;;;4987740;28;20027;-76
2021/01/06 07:18:00;;;;;;;2.47;1.42;;;2.70;99.90;;;;;;4987164;28;20046;-77
2021/01/06 07:20:40;;;;;;;3.47;1.63;;;2.70;99.90;;;;;;4986962;28;20137;-77
2021/01/06 07:23:17;;;;;;;2.15;1.20;;;2.70;99.90;;;;;;4990140;28;20038;-77
2021/01/06 07:25:47;;;;;;;3.50;1.83;;;2.70;99.90;;;;;;4969343;28;20057;-76
2021/01/06 07:28:17;;;;;;;4.38;1.70;;;2.70;99.90;;;;;;4969582;28;20058;-77
2021/01/06 07:30:48;;;;;;;6.18;1.67;;;2.60;99.90;;;;;;4987276;28;20486;-76
2021/01/06 07:33:35;;;;;;;2.45;1.63;;;2.60;99.90;;;;;;4986671;28;20117;-76
2021/01/06 07:36:24;;;;;;;3.75;1.80;;;2.60;99.90;;;;;;4986913;28;20057;-77
2021/01/06 07:38:51;;;;;;;6.45;1.88;;;2.70;99.90;;;;;;4969369;28;20043;-78
2021/01/06 07:41:19;;;;;;;2.55;1.35;;;2.60;99.90;;;;;;4969505;28;20056;-78
2021/01/06 07:44:23;;;;;;;3.70;1.38;;;2.60;99.90;;;;;;4986684;28;20038;-78
2021/01/06 07:47:03;;;;;;;4.38;1.38;;;2.60;99.90;;;;;;4986737;28;20480;-78
2021/01/06 07:49:46;;;;;;;0.90;0.85;;;2.60;99.90;;;;;;4990536;28;20022;-77
2021/01/06 07:52:14;;;;;;;3.03;1.20;;;2.60;99.90;;;;;;4988178;28;20402;-77
2021/01/06 07:54:52;;;;;;;4.40;1.65;;;2.60;99.90;;;;;;5005156;28;20082;-78
2021/01/06 07:57:49;;;;;;;6.40;1.38;;;2.60;99.90;;;;;;5005946;28;20022;-77
2021/01/06 08:00:24;;;;;;;2.58;1.58;;;2.60;99.90;;;;;;4987546;28;20120;-76
2021/01/06 08:02:57;;;;;;;5.00;2.47;;;2.60;99.90;;;;;;4988143;28;20030;-77
2021/01/06 08:05:34;;;;;;;4.07;2.03;;;2.60;99.90;;;;;;4988050;28;20073;-78
2021/01/06 08:08:07;;;;;;;3.20;0.80;;;2.60;99.90;;;;;;4987740;28;20094;-79
2021/01/06 08:10:34;;;;;;;4.38;2.17;;;2.60;99.90;;;;;;5005577;28;20029;-77
2021/01/06 08:13:17;;;;;;;6.40;1.83;;;2.60;99.90;;;;;;5005218;28;20041;-78
2021/01/06 08:15:45;;;;;;;2.60;1.83;;;2.60;99.90;;;;;;4987752;28;20033;-77
2021/01/06 08:18:42;;;;;;;2.50;1.35;;;2.60;99.90;;;;;;4987740;28;20041;-77
2021/01/06 08:21:43;;;;;;;3.08;1.80;;;2.60;99.90;;;;;;5004742;28;20069;-79
2021/01/06 08:24:18;;;;;;;4.25;1.92;;;2.60;99.90;;;;;;4987898;28;20120;-79
2021/01/06 08:26:50;;;;;;;3.47;1.75;;;2.50;99.90;;;;;;5005301;28;20022;-79
2021/01/06 08:29:18;;;;;;;3.10;1.42;;;2.50;99.90;;;;;;4987332;28;20575;-77
2021/01/06 08:31:45;;;;;;;5.85;2.33;;;2.60;99.90;;;;;;4987415;28;20046;-78
2021/01/06 08:34:24;;;;;;;2.65;1.38;;;2.60;99.90;;;;;;4987646;28;20031;-78
2021/01/06 08:36:55;;;;;;;5.30;1.92;;;2.60;99.90;;;;;;4987721;28;20081;-78
2021/01/06 08:39:25;;;;;;;2.35;1.35;;;2.60;99.90;;;;;;5004476;28;20077;-79
2021/01/06 08:41:54;;;;;;;3.75;1.77;;;2.60;99.90;;;;;;4986984;28;20080;-79
2021/01/06 08:44:56;;;;;;;3.17;1.65;;;2.70;99.90;;;;;;4986835;28;20034;-77
2021/01/06 08:47:31;;;;;;;3.00;1.88;;;2.60;99.90;;;;;;4987844;28;20018;-79
2021/01/06 08:50:34;;;;;;;4.03;1.60;;;2.70;99.90;;;;;;4987295;28;20031;-79
2021/01/06 08:53:03;;;;;;;3.85;2.05;;;2.60;99.90;;;;;;4957601;28;20061;-78
2021/01/06 08:55:31;;;;;;;3.28;1.38;;;2.60;99.90;;;;;;5004625;28;20042;-79
2021/01/06 08:58:07;;;;;;;4.38;1.67;;;2.60;99.90;;;;;;5005205;28;20033;-77
2021/01/06 09:00:39;;;;;;;3.95;2.03;;;2.60;99.90;;;;;;4987245;28;20034;-78
2021/01/06 09:03:10;;;;;;;3.58;1.58;;;2.60;99.90;;;;;;5004348;28;20414;-77
2021/01/06 09:05:48;;;;;;;1.80;1.42;;;2.70;99.90;;;;;;5002951;28;20050;-80
2021/01/06 09:08:18;;;;;;;6.32;2.05;;;2.60;99.90;;;;;;4986819;28;20014;-79
2021/01/06 09:11:15;;;;;;;1.90;1.33;;;2.70;99.90;;;;;;4986497;28;20034;-79
2021/01/06 09:13:56;;;;;;;3.28;1.48;;;2.70;99.90;;;;;;4986722;28;20034;-80
2021/01/06 09:16:35;;;;;;;2.20;1.17;;;2.70;99.90;;;;;;5004573;28;20034;-81
2021/01/06 09:19:10;;;;;;;3.53;1.80;;;2.70;99.90;;;;;;4986515;28;20069;-79
2021/01/06 09:21:37;;;;;;;4.63;1.38;;;2.80;99.90;;;;;;5004802;28;20440;-78
2021/01/06 09:24:15;;;;;;;2.80;1.75;;;2.80;99.90;;;;;;4986569;28;20091;-78
2021/01/06 09:26:44;;;;;;;1.58;0.93;;;2.70;99.90;;;;;;4986684;28;20037;-79
2021/01/06 09:29:13;;;;;;;5.25;1.63;;;2.80;99.90;;;;;;4986720;28;20089;-79
2021/01/06 09:31:43;;;;;;;5.03;2.35;;;2.70;99.90;;;;;;5003790;28;20126;-77
2021/01/06 09:34:12;;;;;;;3.25;1.55;;;2.70;99.90;;;;;;4988033;28;20030;-77
2021/01/06 09:36:37;;;;;;;4.65;1.65;;;2.70;99.90;;;;;;4990237;28;20387;-78
2021/01/06 09:39:07;;;;;;;10.43;2.85;;;2.80;99.90;;;;;;5007558;28;20118;-78
2021/01/06 09:41:35;;;;;;;5.07;2.53;;;2.80;99.90;;;;;;5008020;28;20022;-78
2021/01/06 09:44:06;;;;;;;3.70;1.58;;;2.90;99.90;;;;;;5007788;28;20030;-79
2021/01/06 09:46:51;;;;;;;2.70;1.55;;;2.90;99.90;;;;;;5007779;28;20023;-79
2021/01/06 09:49:40;;;;;;;3.50;1.33;;;2.90;99.90;;;;;;5007861;28;20046;-78
2021/01/06 09:52:15;;;;;;;2.47;1.60;;;2.90;99.90;;;;;;5007754;28;20062;-77
2021/01/06 09:54:42;;;;;;;3.70;1.95;;;2.90;99.90;;;;;;4989747;28;20057;-79
2021/01/06 09:57:14;;;;;;;2.67;1.67;;;2.90;99.90;;;;;;4990104;28;20086;-77
2021/01/06 09:59:40;;;;;;;5.70;1.85;;;2.90;99.90;;;;;;5007428;28;20038;-78
2021/01/06 10:02:21;;;;;;;2.67;1.65;;;2.90;99.90;;;;;;5007855;28;20041;-78
2021/01/06 10:04:49;;;;;;;5.20;1.65;;;2.90;99.90;;;;;;5006720;28;20058;-77
2021/01/06 10:07:32;;;;;;;4.90;2.25;;;2.90;99.90;;;;;;5007492;28;20026;-78
2021/01/06 10:10:14;;;;;;;11.07;1.85;;;2.90;99.90;;;;;;4990127;28;20069;-78
2021/01/06 10:12:53;;;;;;;7.18;3.03;;;2.80;99.90;;;;;;5007206;28;20110;-78
2021/01/06 10:15:28;;;;;;;3.97;2.03;;;2.80;99.90;;;;;;5007665;28;20029;-79
2021/01/06 10:18:03;;;;;;;5.85;2.53;;;2.80;99.90;;;;;;4990023;28;20023;-78
2021/01/06 10:20:35;;;;;;;8.00;3.05;;;2.90;99.90;;;;;;5007534;28;20045;-78
2021/01/06 10:23:20;;;;;;;7.03;2.30;;;3.00;99.90;;;;;;4989675;28;20038;-78
2021/01/06 10:25:57;;;;;;;;;;;3.00;99.90;;;;;;5007678;28;20030;-78
2021/01/06 10:28:22;;;;;;;3.15;1.80;;;3.10;99.90;;;;;;5007106;28;19917;-77
2021/01/06 10:31:15;;;;;;;12.60;2.10;;;3.10;99.90;;;;;;5007270;28;20026;-78
2021/01/06 10:34:04;;;;;;;3.33;1.90;;;3.20;99.90;;;;;;5005530;28;20049;-80
2021/01/06 10:37:00;;;;;;;7.63;2.30;;;3.20;99.90;;;;;;4997923;28;20403;-79
2021/01/06 10:39:38;;;;;;;5.45;2.47;;;3.20;99.90;;;;;;5006045;28;20035;-78
2021/01/06 10:42:26;;;;;;;5.68;2.20;;;3.20;99.90;;;;;;5006436;28;20046;-80
2021/01/06 10:44:59;;;;;;;4.07;1.67;;;3.30;99.90;;;;;;4995905;28;20823;-80
2021/01/06 10:47:30;;;;;;;2.58;1.70;;;3.20;99.90;;;;;;4989585;28;20129;-79
2021/01/06 10:49:59;;;;;;;4.57;2.38;;;3.20;99.90;;;;;;5007485;28;20030;-78
2021/01/06 10:52:47;;;;;;;4.13;1.95;;;3.30;99.90;;;;;;4989927;28;20029;-79
2021/01/06 10:55:37;;;;;;;4.90;3.13;;;3.30;99.90;;;;;;4988624;28;20041;-78
2021/01/06 10:58:28;;;;;;;4.68;2.28;;;3.40;99.90;;;;;;4989205;28;20026;-79
2021/01/06 11:01:09;;;;;;;4.00;1.73;;;3.40;99.90;;;;;;4989072;28;20026;-78
2021/01/06 11:03:48;;;;;;;5.22;2.47;;;3.40;99.90;;;;;;5004068;28;20034;-78
2021/01/06 11:06:49;;;;;;;4.03;2.03;;;3.40;99.90;;;;;;5006598;28;20027;-77
2021/01/06 11:09:36;;;;;;;5.15;2.05;;;3.40;99.90;;;;;;5006247;28;20038;-78
2021/01/06 11:12:16;;;;;;;4.15;1.73;;;3.40;99.90;;;;;;4988578;28;20406;-80
2021/01/06 11:15:01;;;;;;;5.82;2.30;;;3.30;99.90;;;;;;4987730;28;20109;-79
2021/01/06 11:17:36;;;;;;;3.38;1.55;;;3.20;99.90;;;;;;5006073;28;20041;-79
2021/01/06 11:20:32;;;;;;;2.70;1.77;;;3.20;99.90;;;;;;5005635;28;20038;-79
2021/01/06 11:23:35;;;;;;;4.65;2.20;;;3.30;99.90;;;;;;5005529;28;20135;-80
2021/01/06 11:26:20;;;;;;;5.53;2.67;;;3.30;99.90;;;;;;4987972;28;20026;-79
2021/01/06 11:29:15;;;;;;;3.97;2.30;;;3.30;99.90;;;;;;4988041;28;20426;-80
2021/01/06 11:32:00;;;;;;;2.80;1.58;;;3.30;99.90;;;;;;5005745;28;20030;-80
2021/01/06 11:34:37;;;;;;;5.03;2.28;;;3.30;99.90;;;;;;4987612;28;20038;-79
2021/01/06 11:37:33;;;;;;;4.60;2.60;;;3.30;99.90;;;;;;4988001;28;20026;-80
2021/01/06 11:39:59;;;;;;;6.38;2.88;;;3.30;99.90;;;;;;5005644;28;20035;-79
2021/01/06 11:42:49;;;;;;;4.88;2.40;;;3.40;99.90;;;;;;4988308;28;20030;-80
2021/01/06 11:45:20;;;;;;;6.03;2.75;;;3.40;99.90;;;;;;4987804;28;20027;-81
2021/01/06 11:48:04;;;;;;;3.85;2.05;;;3.40;99.90;;;;;;4987706;28;20054;-81
2021/01/06 11:50:36;;;;;;;4.07;2.80;;;3.50;99.90;;;;;;4987437;28;20045;-80
2021/01/06 11:53:17;;;;;;;4.38;2.58;;;3.50;99.90;;;;;;5004660;28;20061;-80
2021/01/06 11:56:16;;;;;;;9.63;3.50;;;3.40;99.90;;;;;;4986982;28;20030;-80
2021/01/06 11:59:19;;;;;;;5.38;2.25;;;3.30;99.90;;;;;;5004366;28;20128;-81
2021/01/06 12:02:09;;;;;;;6.13;2.67;;;3.20;99.90;;;;;;4987085;28;20034;-80
2021/01/06 12:04:56;;;;;;;7.20;2.58;;;3.20;99.90;;;;;;4986570;28;20380;-81
2021/01/06 12:07:49;;;;;;;10.02;2.40;;;3.20;99.90;;;;;;4987607;28;20098;-81
2021/01/06 12:10:27;;;;;;;4.70;2.33;;;3.20;99.90;;;;;;4987506;28;20149;-81
2021/01/06 12:13:13;;;;;;;3.88;2.30;;;3.20;99.90;;;;;;4987173;28;20368;-81
2021/01/06 12:15:48;;;;;;;4.78;1.95;;;3.20;99.90;;;;;;4987437;28;20406;-81
2021/01/06 12:18:39;;;;;;;5.32;2.42;;;3.20;99.90;;;;;;4982968;28;20027;-82
2021/01/06 12:21:35;;;;;;;4.10;2.15;;;3.20;99.90;;;;;;4966909;28;20098;-80
2021/01/06 12:24:16;;;;;;;5.88;2.38;;;3.10;99.90;;;;;;4984559;28;20027;-84
2021/01/06 12:26:49;;;;;;;4.35;2.55;;;3.10;99.90;;;;;;4983437;28;20125;-82
2021/01/06 12:29:18;;;;;;;6.13;3.10;;;3.10;99.90;;;;;;4984379;28;20029;-84
2021/01/06 12:32:12;;;;;;;4.32;2.10;;;3.20;99.90;;;;;;4984615;28;20058;-83
2021/01/06 12:34:41;;;;;;;3.30;1.92;;;3.10;99.90;;;;;;4987177;28;20045;-84
2021/01/06 12:37:22;;;;;;;5.03;2.45;;;3.10;99.90;;;;;;4986657;28;20027;-85
2021/01/06 12:40:15;;;;;;;4.95;2.33;;;3.10;99.90;;;;;;4984943;28;20440;-86
2021/01/06 12:43:01;;;;;;;4.50;2.65;;;3.10;99.90;;;;;;4984758;28;20022;-83
2021/01/06 12:45:34;;;;;;;5.40;2.35;;;3.10;99.90;;;;;;4986170;28;20018;-84
2021/01/06 12:48:12;;;;;;;4.25;2.00;;;3.10;99.90;;;;;;4984777;28;20031;-85
2021/01/06 12:51:10;;;;;;;5.72;2.67;;;3.20;99.90;;;;;;4984850;28;20031;-86
2021/01/06 12:53:57;;;;;;;6.72;2.38;;;3.10;99.90;;;;;;4984567;28;20067;-86
2021/01/06 12:56:32;;;;;;;8.13;2.28;;;3.00;99.90;;;;;;4985118;28;20387;-84
2021/01/06 12:59:15;;;;;;;4.25;2.20;;;3.00;99.90;;;;;;4984668;28;20031;-85
2021/01/06 13:02:03;;;;;;;3.17;1.83;;;3.10;99.90;;;;;;4984553;28;20030;-86
2021/01/06 13:04:35;;;;;;;3.70;2.30;;;3.10;99.90;;;;;;4984746;28;20119;-85
2021/01/06 13:07:14;;;;;;;4.82;2.20;;;3.10;99.90;;;;;;4985429;28;20035;-87
2021/01/06 13:09:49;;;;;;;2.60;1.85;;;3.00;99.90;;;;;;4988627;28;20498;-88
2021/01/06 13:12:30;;;;;;;5.72;2.00;;;3.00;99.90;;;;;;4988724;28;20026;-88
2021/01/06 13:15:23;;;;;;;16.35;2.42;;;2.90;99.90;;;;;;4996486;28;20019;-88
2021/01/06 13:18:05;;;;;;;2.67;1.58;;;2.90;99.90;;;;;;5000538;28;20003;-89
2021/01/06 13:20:45;;;;;;;4.47;2.10;;;2.80;99.90;;;;;;5000225;28;20090;-89
2021/01/06 13:23:14;;;;;;;3.47;1.67;;;2.70;99.90;;;;;;5000421;28;20086;-89
2021/01/06 13:26:28;;;;;;;5.25;2.33;;;2.70;99.90;;;;;;4999632;28;20126;-89
2021/01/06 13:29:10;;;;;;;4.38;2.20;;;2.60;99.90;;;;;;4995910;28;20011;-88
2021/01/06 13:32:08;;;;;;;3.03;1.90;;;2.60;99.90;;;;;;4990098;28;20041;-89
2021/01/06 13:34:40;;;;;;;5.88;2.55;;;2.60;99.90;;;;;;4988021;28;20023;-87
2021/01/06 13:37:08;;;;;;;5.55;2.75;;;2.50;99.90;;;;;;4988461;28;20042;-85
2021/01/06 13:39:58;;;;;;;3.67;1.40;;;2.50;99.90;;;;;;4988537;28;20042;-84
2021/01/06 13:42:55;;;;;;;6.82;2.25;;;2.50;99.90;;;;;;4988699;28;20054;-85
2021/01/06 13:45:59;;;;;;;5.22;2.47;;;2.50;99.90;;;;;;4987275;28;20038;-85
2021/01/06 13:48:45;;;;;;;;;;;;;;;;;;;;;